sensor_id;sensor_type;location;lat;lon;timestamp;pressure;altitude;pressure_sealevel;temperature;humidity
20622;BME280;10470;42.670;23.354;2023-01-25T00:01:08;95905.84;;;3.02;100.00
20622;BME280;10470;42.670;23.354;2023-01-25T00:03:53;95910.44;;;2.98;100.00
20622;BME280;10470;42.670;23.354;2023-01-25T00:06:39;95909.94;;;2.86;100.00
20622;BME280;10470;42.670;23.354;2023-01-25T00:09:24;95918.47;;;2.95;100.00
20622;BME280;10470;42.670;23.354;2023-01-25T00:12:10;95918.44;;;2.91;100.00
20622;BME280;10470;42.670;23.354;2023-01-25T00:14:55;95909.53;;;2.83;100.00
20622;BME280;10470;42.670;23.354;2023-01-25T00:17:41;95913.09;;;2.95;100.00
20622;BME280;10470;42.670;23.354;2023-01-25T00:20:26;95902.97;;;2.47;100.00
20622;BME280;10470;42.670;23.354;2023-01-25T00:23:12;95916.63;;;2.65;100.00
20622;BME280;10470;42.670;23.354;2023-01-25T00:25:57;95903.72;;;2.81;100.00
20622;BME280;10470;42.670;23.354;2023-01-25T00:28:48;95908.00;;;2.86;100.00
20622;BME280;10470;42.670;23.354;2023-01-25T00:40:02;95894.03;;;2.73;100.00
20622;BME280;10470;42.670;23.354;2023-01-25T00:42:48;95907.44;;;2.70;100.00
20622;BME280;10470;42.670;23.354;2023-01-25T00:45:33;95912.38;;;2.64;100.00
20622;BME280;10470;42.670;23.354;2023-01-25T00:48:18;95905.44;;;2.59;100.00
20622;BME280;10470;42.670;23.354;2023-01-25T00:51:04;95916.13;;;2.56;100.00
20622;BME280;10470;42.670;23.354;2023-01-25T00:53:50;95906.47;;;2.51;100.00
20622;BME280;10470;42.670;23.354;2023-01-25T00:56:35;95913.19;;;2.68;100.00
20622;BME280;10470;42.670;23.354;2023-01-25T00:59:22;95914.28;;;2.63;100.00
20622;BME280;10470;42.670;23.354;2023-01-25T01:02:07;95903.22;;;2.69;100.00
20622;BME280;10470;42.670;23.354;2023-01-25T01:04:53;95904.31;;;2.64;100.00
20622;BME280;10470;42.670;23.354;2023-01-25T01:07:40;95902.97;;;2.47;100.00
20622;BME280;10470;42.670;23.354;2023-01-25T01:10:26;95909.66;;;2.60;100.00
20622;BME280;10470;42.670;23.354;2023-01-25T01:13:11;95904.97;;;2.54;100.00
20622;BME280;10470;42.670;23.354;2023-01-25T01:16:00;95906.78;;;2.46;100.00
20622;BME280;10470;42.670;23.354;2023-01-25T01:18:46;95904.34;;;2.68;100.00
20622;BME280;10470;42.670;23.354;2023-01-25T01:21:32;95902.09;;;2.73;100.00
20622;BME280;10470;42.670;23.354;2023-01-25T01:24:17;95909.78;;;2.71;100.00
20622;BME280;10470;42.670;23.354;2023-01-25T01:27:04;95904.59;;;2.55;100.00
20622;BME280;10470;42.670;23.354;2023-01-25T01:29:49;95897.31;;;2.56;100.00
20622;BME280;10470;42.670;23.354;2023-01-25T01:32:35;95896.28;;;2.34;100.00
20622;BME280;10470;42.670;23.354;2023-01-25T01:35:20;95892.03;;;2.33;100.00
20622;BME280;10470;42.670;23.354;2023-01-25T01:38:05;95886.50;;;2.52;100.00
20622;BME280;10470;42.670;23.354;2023-01-25T01:40:51;95878.78;;;2.51;100.00
20622;BME280;10470;42.670;23.354;2023-01-25T01:43:37;95883.00;;;2.48;100.00
20622;BME280;10470;42.670;23.354;2023-01-25T01:46:34;95881.28;;;2.67;100.00
20622;BME280;10470;42.670;23.354;2023-01-25T01:49:28;95882.88;;;2.75;100.00
20622;BME280;10470;42.670;23.354;2023-01-25T01:52:16;95877.47;;;2.71;100.00
20622;BME280;10470;42.670;23.354;2023-01-25T01:55:07;95876.16;;;2.54;100.00
20622;BME280;10470;42.670;23.354;2023-01-25T01:57:56;95878.44;;;2.52;100.00
20622;BME280;10470;42.670;23.354;2023-01-25T02:00:42;95881.28;;;2.67;100.00
20622;BME280;10470;42.670;23.354;2023-01-25T02:03:28;95879.22;;;2.56;100.00
20622;BME280;10470;42.670;23.354;2023-01-25T02:06:23;95878.44;;;2.18;100.00
20622;BME280;10470;42.670;23.354;2023-01-25T02:09:10;95874.59;;;2.53;100.00
20622;BME280;10470;42.670;23.354;2023-01-25T02:11:57;95875.53;;;2.68;100.00
20622;BME280;10470;42.670;23.354;2023-01-25T02:14:48;95882.03;;;2.67;100.00
20622;BME280;10470;42.670;23.354;2023-01-25T02:17:35;95879.97;;;2.53;100.00
20622;BME280;10470;42.670;23.354;2023-01-25T02:20:34;95877.28;;;2.53;100.00
20622;BME280;10470;42.670;23.354;2023-01-25T02:26:22;95880.94;;;2.72;100.00
20622;BME280;10470;42.670;23.354;2023-01-25T02:29:09;95880.94;;;2.72;100.00
20622;BME280;10470;42.670;23.354;2023-01-25T02:32:01;95872.06;;;2.68;100.00
20622;BME280;10470;42.670;23.354;2023-01-25T02:34:46;95866.63;;;2.64;100.00
20622;BME280;10470;42.670;23.354;2023-01-25T02:37:32;95870.78;;;2.54;100.00
20622;BME280;10470;42.670;23.354;2023-01-25T02:40:17;95884.63;;;2.56;100.00
20622;BME280;10470;42.670;23.354;2023-01-25T02:43:03;95870.09;;;2.65;100.00
20622;BME280;10470;42.670;23.354;2023-01-25T02:45:53;95869.53;;;2.45;100.00
20622;BME280;10470;42.670;23.354;2023-01-25T02:48:40;95864.16;;;2.48;100.00
20622;BME280;10470;42.670;23.354;2023-01-25T02:51:27;95875.00;;;2.55;100.00
20622;BME280;10470;42.670;23.354;2023-01-25T02:54:15;95866.25;;;2.28;100.00
20622;BME280;10470;42.670;23.354;2023-01-25T02:57:00;95872.00;;;2.27;100.00
20622;BME280;10470;42.670;23.354;2023-01-25T02:59:46;95869.66;;;2.59;100.00
20622;BME280;10470;42.670;23.354;2023-01-25T03:02:23;95868.66;;;2.37;100.00
20622;BME280;10470;42.670;23.354;2023-01-25T03:05:08;95868.56;;;2.30;100.00
20622;BME280;10470;42.670;23.354;2023-01-25T03:07:54;95874.91;;;2.45;100.00
20622;BME280;10470;42.670;23.354;2023-01-25T03:10:39;95871.97;;;2.23;100.00
20622;BME280;10470;42.670;23.354;2023-01-25T03:13:25;95869.59;;;2.18;100.00
20622;BME280;10470;42.670;23.354;2023-01-25T03:16:11;95878.56;;;2.29;100.00
20622;BME280;10470;42.670;23.354;2023-01-25T03:18:57;95864.66;;;2.24;100.00
20622;BME280;10470;42.670;23.354;2023-01-25T03:21:42;95870.19;;;2.38;100.00
20622;BME280;10470;42.670;23.354;2023-01-25T03:24:28;95864.81;;;2.38;100.00
20622;BME280;10470;42.670;23.354;2023-01-25T03:27:13;95863.31;;;2.40;100.00
20622;BME280;10470;42.670;23.354;2023-01-25T03:30:01;95871.06;;;2.46;100.00
20622;BME280;10470;42.670;23.354;2023-01-25T03:32:46;95867.81;;;2.29;100.00
20622;BME280;10470;42.670;23.354;2023-01-25T03:35:32;95870.91;;;2.31;100.00
20622;BME280;10470;42.670;23.354;2023-01-25T03:38:17;95874.81;;;2.37;100.00
20622;BME280;10470;42.670;23.354;2023-01-25T03:41:04;95867.50;;;2.38;100.00
20622;BME280;10470;42.670;23.354;2023-01-25T03:43:50;95869.53;;;2.48;100.00
20622;BME280;10470;42.670;23.354;2023-01-25T03:46:36;95862.31;;;2.52;100.00
20622;BME280;10470;42.670;23.354;2023-01-25T03:49:21;95868.00;;;2.47;100.00
20622;BME280;10470;42.670;23.354;2023-01-25T03:52:07;95871.88;;;2.50;100.00
20622;BME280;10470;42.670;23.354;2023-01-25T03:54:52;95865.19;;;2.36;100.00
20622;BME280;10470;42.670;23.354;2023-01-25T03:57:38;95861.88;;;2.47;100.00
20622;BME280;10470;42.670;23.354;2023-01-25T04:00:23;95864.41;;;2.36;100.00
20622;BME280;10470;42.670;23.354;2023-01-25T04:03:09;95858.00;;;2.44;100.00
20622;BME280;10470;42.670;23.354;2023-01-25T04:05:55;95852.75;;;2.58;100.00
20622;BME280;10470;42.670;23.354;2023-01-25T04:08:41;95857.34;;;2.58;100.00
20622;BME280;10470;42.670;23.354;2023-01-25T04:11:26;95857.25;;;2.47;100.00
20622;BME280;10470;42.670;23.354;2023-01-25T04:14:12;95854.84;;;2.38;100.00
20622;BME280;10470;42.670;23.354;2023-01-25T04:16:57;95859.53;;;2.45;100.00
20622;BME280;10470;42.670;23.354;2023-01-25T04:19:43;95856.28;;;2.29;100.00
20622;BME280;10470;42.670;23.354;2023-01-25T04:22:28;95853.19;;;2.27;100.00
20622;BME280;10470;42.670;23.354;2023-01-25T04:25:13;95842.56;;;2.41;100.00
20622;BME280;10470;42.670;23.354;2023-01-25T04:27:59;95843.38;;;2.42;100.00
20622;BME280;10470;42.670;23.354;2023-01-25T04:30:44;95856.47;;;2.47;100.00
20622;BME280;10470;42.670;23.354;2023-01-25T04:33:30;95847.09;;;2.33;100.00
20622;BME280;10470;42.670;23.354;2023-01-25T04:36:16;95852.56;;;2.40;100.00
20622;BME280;10470;42.670;23.354;2023-01-25T04:39:01;95869.44;;;2.37;100.00
20622;BME280;10470;42.670;23.354;2023-01-25T04:41:46;95864.81;;;2.38;100.00
20622;BME280;10470;42.670;23.354;2023-01-25T04:44:16;95868.28;;;2.38;100.00
20622;BME280;10470;42.670;23.354;2023-01-25T04:47:02;95870.91;;;2.31;100.00
20622;BME280;10470;42.670;23.354;2023-01-25T04:49:47;95857.78;;;2.26;100.00
20622;BME280;10470;42.670;23.354;2023-01-25T04:52:33;95863.28;;;2.37;100.00
20622;BME280;10470;42.670;23.354;2023-01-25T04:55:19;95869.22;;;2.19;100.00
20622;BME280;10470;42.670;23.354;2023-01-25T04:58:05;95864.22;;;2.18;100.00
20622;BME280;10470;42.670;23.354;2023-01-25T05:00:50;95862.88;;;2.35;100.00
20622;BME280;10470;42.670;23.354;2023-01-25T05:03:36;95867.50;;;2.38;100.00
20622;BME280;10470;42.670;23.354;2023-01-25T05:06:21;95858.66;;;2.34;100.00
20622;BME280;10470;42.670;23.354;2023-01-25T05:09:08;95872.31;;;2.22;100.00
20622;BME280;10470;42.670;23.354;2023-01-25T05:11:53;95863.53;;;2.25;100.00
20622;BME280;10470;42.670;23.354;2023-01-25T05:14:39;95870.16;;;2.34;100.00
20622;BME280;10470;42.670;23.354;2023-01-25T05:17:25;95860.16;;;2.01;100.00
20622;BME280;10470;42.670;23.354;2023-01-25T05:20:10;95862.31;;;2.18;100.00
20622;BME280;10470;42.670;23.354;2023-01-25T05:22:56;95854.66;;;2.21;100.00
20622;BME280;10470;42.670;23.354;2023-01-25T05:25:41;95858.25;;;2.35;100.00
20622;BME280;10470;42.670;23.354;2023-01-25T05:28:45;95859.81;;;2.36;100.00
20622;BME280;10470;42.670;23.354;2023-01-25T05:31:31;95862.44;;;2.29;100.00
20622;BME280;10470;42.670;23.354;2023-01-25T05:34:16;95865.16;;;2.33;100.00
20622;BME280;10470;42.670;23.354;2023-01-25T05:37:03;95866.25;;;2.28;100.00
20622;BME280;10470;42.670;23.354;2023-01-25T05:39:49;95864.81;;;2.04;100.00
20622;BME280;10470;42.670;23.354;2023-01-25T05:42:34;95871.81;;;2.12;100.00
20622;BME280;10470;42.670;23.354;2023-01-25T05:45:20;95865.72;;;2.15;100.00
20622;BME280;10470;42.670;23.354;2023-01-25T05:48:05;95871.81;;;2.12;100.00
20622;BME280;10470;42.670;23.354;2023-01-25T05:50:51;95875.22;;;2.09;100.00
20622;BME280;10470;42.670;23.354;2023-01-25T05:53:36;95865.94;;;2.03;100.00
20622;BME280;10470;42.670;23.354;2023-01-25T05:56:22;95872.41;;;2.29;100.00
20622;BME280;10470;42.670;23.354;2023-01-25T05:59:09;95878.22;;;2.34;100.00
20622;BME280;10470;42.670;23.354;2023-01-25T06:01:55;95880.09;;;2.30;100.00
20622;BME280;10470;42.670;23.354;2023-01-25T06:04:40;95856.41;;;2.09;100.00
20622;BME280;10470;42.670;23.354;2023-01-25T06:07:26;95874.47;;;2.09;100.00
20622;BME280;10470;42.670;23.354;2023-01-25T06:10:11;95869.06;;;2.05;100.00
20622;BME280;10470;42.670;23.354;2023-01-25T06:12:57;95876.19;;;2.24;100.00
20622;BME280;10470;42.670;23.354;2023-01-25T06:15:53;95886.09;;;2.16;100.00
20622;BME280;10470;42.670;23.354;2023-01-25T06:18:39;95889.75;;;2.05;100.00
20622;BME280;10470;42.670;23.354;2023-01-25T06:21:25;95887.28;;;2.19;100.00
20622;BME280;10470;42.670;23.354;2023-01-25T06:24:10;95875.00;;;2.22;100.00
20622;BME280;10470;42.670;23.354;2023-01-25T06:26:56;95888.53;;;2.29;100.00
20622;BME280;10470;42.670;23.354;2023-01-25T06:29:41;95885.53;;;2.34;100.00
20622;BME280;10470;42.670;23.354;2023-01-25T06:32:31;95885.25;;;2.12;100.00
20622;BME280;10470;42.670;23.354;2023-01-25T06:35:16;95882.09;;;2.37;100.00
20622;BME280;10470;42.670;23.354;2023-01-25T06:38:02;95883.25;;;2.06;100.00
20622;BME280;10470;42.670;23.354;2023-01-25T06:40:47;95873.94;;;2.30;100.00
20622;BME280;10470;42.670;23.354;2023-01-25T06:43:33;95883.16;;;2.29;100.00
20622;BME280;10470;42.670;23.354;2023-01-25T06:46:19;95883.88;;;2.26;100.00
20622;BME280;10470;42.670;23.354;2023-01-25T06:49:04;95880.09;;;2.30;100.00
20622;BME280;10470;42.670;23.354;2023-01-25T06:51:43;95876.22;;;2.28;100.00
20622;BME280;10470;42.670;23.354;2023-01-25T06:54:29;95890.00;;;2.23;100.00
20622;BME280;10470;42.670;23.354;2023-01-25T06:57:14;95880.97;;;2.38;100.00
20622;BME280;10470;42.670;23.354;2023-01-25T07:00:00;95885.47;;;2.30;100.00
20622;BME280;10470;42.670;23.354;2023-01-25T07:02:45;95880.53;;;2.36;100.00
20622;BME280;10470;42.670;23.354;2023-01-25T07:05:31;95888.13;;;2.27;100.00
20622;BME280;10470;42.670;23.354;2023-01-25T07:08:17;95887.50;;;2.37;100.00
20622;BME280;10470;42.670;23.354;2023-01-25T07:11:07;95885.56;;;2.37;100.00
20622;BME280;10470;42.670;23.354;2023-01-25T07:13:56;95883.38;;;2.13;100.00
20622;BME280;10470;42.670;23.354;2023-01-25T07:16:42;95888.34;;;2.14;100.00
20622;BME280;10470;42.670;23.354;2023-01-25T07:19:27;95888.81;;;2.20;100.00
20622;BME280;10470;42.670;23.354;2023-01-25T07:22:12;95883.25;;;2.06;100.00
20622;BME280;10470;42.670;23.354;2023-01-25T07:24:58;95880.72;;;2.16;100.00
20622;BME280;10470;42.670;23.354;2023-01-25T07:27:44;95891.78;;;2.42;100.00
20622;BME280;10470;42.670;23.354;2023-01-25T07:30:29;95894.69;;;2.29;100.00
20622;BME280;10470;42.670;23.354;2023-01-25T07:33:14;95894.81;;;2.40;100.00
20622;BME280;10470;42.670;23.354;2023-01-25T07:36:05;95896.19;;;2.27;100.00
20622;BME280;10470;42.670;23.354;2023-01-25T07:38:52;95892.34;;;2.28;100.00
20622;BME280;10470;42.670;23.354;2023-01-25T07:41:39;95897.25;;;2.18;100.00
20622;BME280;10470;42.670;23.354;2023-01-25T07:44:25;95900.75;;;2.23;100.00
20622;BME280;10470;42.670;23.354;2023-01-25T07:47:10;95902.66;;;2.22;100.00
20622;BME280;10470;42.670;23.354;2023-01-25T07:49:55;95907.09;;;2.37;100.00
20622;BME280;10470;42.670;23.354;2023-01-25T07:52:41;95912.69;;;2.25;100.00
20622;BME280;10470;42.670;23.354;2023-01-25T07:55:26;95906.25;;;2.33;100.00
20622;BME280;10470;42.670;23.354;2023-01-25T07:58:12;95892.28;;;2.21;100.00
20622;BME280;10470;42.670;23.354;2023-01-25T08:01:07;95905.75;;;2.24;100.00
20622;BME280;10470;42.670;23.354;2023-01-25T08:03:54;95901.00;;;2.10;100.00
20622;BME280;10470;42.670;23.354;2023-01-25T08:06:40;95897.25;;;2.18;100.00
20622;BME280;10470;42.670;23.354;2023-01-25T08:09:25;95873.00;;;1.85;100.00
20622;BME280;10470;42.670;23.354;2023-01-25T08:12:12;95888.44;;;2.22;100.00
20622;BME280;10470;42.670;23.354;2023-01-25T08:14:57;95898.03;;;2.53;100.00
20622;BME280;10470;42.670;23.354;2023-01-25T08:17:43;95897.50;;;2.40;100.00
20622;BME280;10470;42.670;23.354;2023-01-25T08:20:28;95894.25;;;2.57;100.00
20622;BME280;10470;42.670;23.354;2023-01-25T08:23:14;95905.28;;;2.49;100.00
20622;BME280;10470;42.670;23.354;2023-01-25T08:26:07;95895.47;;;2.30;100.00
20622;BME280;10470;42.670;23.354;2023-01-25T08:28:53;95890.78;;;2.23;100.00
20622;BME280;10470;42.670;23.354;2023-01-25T08:31:40;95887.31;;;2.56;100.00
20622;BME280;10470;42.670;23.354;2023-01-25T08:34:27;95887.84;;;2.69;100.00
20622;BME280;10470;42.670;23.354;2023-01-25T08:37:15;95896.75;;;2.77;100.00
20622;BME280;10470;42.670;23.354;2023-01-25T08:40:00;95890.53;;;2.69;100.00
20622;BME280;10470;42.670;23.354;2023-01-25T08:42:46;95888.78;;;2.50;100.00
20622;BME280;10470;42.670;23.354;2023-01-25T08:45:31;95889.22;;;2.56;100.00
20622;BME280;10470;42.670;23.354;2023-01-25T08:48:21;95876.97;;;2.58;100.00
20622;BME280;10470;42.670;23.354;2023-01-25T08:51:11;95880.47;;;2.62;100.00
20622;BME280;10470;42.670;23.354;2023-01-25T08:54:04;95879.31;;;2.63;100.00
20622;BME280;10470;42.670;23.354;2023-01-25T08:56:50;95872.03;;;2.64;100.00
20622;BME280;10470;42.670;23.354;2023-01-25T08:59:22;95883.78;;;2.86;100.00
20622;BME280;10470;42.670;23.354;2023-01-25T09:02:10;95876.56;;;2.94;100.00
20622;BME280;10470;42.670;23.354;2023-01-25T09:04:56;95887.88;;;2.73;100.00
20622;BME280;10470;42.670;23.354;2023-01-25T09:07:41;95886.75;;;2.77;100.00
20622;BME280;10470;42.670;23.354;2023-01-25T09:10:27;95871.44;;;2.81;100.00
20622;BME280;10470;42.670;23.354;2023-01-25T09:13:12;95877.84;;;2.36;100.00
20622;BME280;10470;42.670;23.354;2023-01-25T09:16:00;95876.34;;;2.38;100.00
20622;BME280;10470;42.670;23.354;2023-01-25T09:18:45;95869.06;;;2.39;100.00
20622;BME280;10470;42.670;23.354;2023-01-25T09:21:32;95865.88;;;2.63;100.00
20622;BME280;10470;42.670;23.354;2023-01-25T09:24:18;95857.94;;;2.40;100.00
20622;BME280;10470;42.670;23.354;2023-01-25T09:27:03;95863.63;;;2.69;100.00
20622;BME280;10470;42.670;23.354;2023-01-25T09:29:50;95863.19;;;2.63;100.00
20622;BME280;10470;42.670;23.354;2023-01-25T09:32:35;95854.88;;;2.79;100.00
20622;BME280;10470;42.670;23.354;2023-01-25T09:35:21;95849.41;;;2.69;100.00
20622;BME280;10470;42.670;23.354;2023-01-25T09:38:07;95851.09;;;2.84;100.00
20622;BME280;10470;42.670;23.354;2023-01-25T09:56:19;95827.25;;;3.34;100.00
20622;BME280;10470;42.670;23.354;2023-01-25T09:59:12;95813.38;;;3.28;100.00
20622;BME280;10470;42.670;23.354;2023-01-25T10:05:23;95802.50;;;3.14;100.00
20622;BME280;10470;42.670;23.354;2023-01-25T10:11:22;95799.25;;;3.46;100.00
20622;BME280;10470;42.670;23.354;2023-01-25T10:14:12;95801.19;;;3.53;100.00
20622;BME280;10470;42.670;23.354;2023-01-25T10:17:04;95787.25;;;3.36;100.00
20622;BME280;10470;42.670;23.354;2023-01-25T10:26:17;95787.38;;;3.58;100.00
20622;BME280;10470;42.670;23.354;2023-01-25T10:32:18;95781.56;;;3.52;100.00
20622;BME280;10470;42.670;23.354;2023-01-25T10:35:18;95778.56;;;3.64;100.00
20622;BME280;10470;42.670;23.354;2023-01-25T10:44:13;95774.78;;;3.83;100.00
20622;BME280;10470;42.670;23.354;2023-01-25T10:47:32;95767.78;;;3.64;100.00
20622;BME280;10470;42.670;23.354;2023-01-25T10:53:32;95765.13;;;3.79;100.00
20622;BME280;10470;42.670;23.354;2023-01-25T10:56:25;95757.16;;;4.04;100.00
20622;BME280;10470;42.670;23.354;2023-01-25T10:59:24;95758.31;;;4.06;100.00
20622;BME280;10470;42.670;23.354;2023-01-25T11:02:43;95754.41;;;3.86;100.00
20622;BME280;10470;42.670;23.354;2023-01-25T11:05:36;95744.06;;;4.09;100.00
20622;BME280;10470;42.670;23.354;2023-01-25T11:08:25;95742.94;;;4.10;100.00
20622;BME280;10470;42.670;23.354;2023-01-25T11:11:26;95737.50;;;3.92;100.00
20622;BME280;10470;42.670;23.354;2023-01-25T11:14:18;95741.38;;;4.09;100.00
20622;BME280;10470;42.670;23.354;2023-01-25T11:17:04;95732.50;;;3.98;100.00
20622;BME280;10470;42.670;23.354;2023-01-25T11:20:17;95735.63;;;4.18;100.00
20622;BME280;10470;42.670;23.354;2023-01-25T11:23:22;95728.28;;;4.08;100.00
20622;BME280;10470;42.670;23.354;2023-01-25T11:26:15;95734.09;;;4.28;100.00
20622;BME280;10470;42.670;23.354;2023-01-25T11:29:21;95728.31;;;4.33;100.00
20622;BME280;10470;42.670;23.354;2023-01-25T11:32:17;95721.00;;;4.15;100.00
20622;BME280;10470;42.670;23.354;2023-01-25T11:35:30;95724.84;;;4.18;100.00
20622;BME280;10470;42.670;23.354;2023-01-25T11:38:20;95710.97;;;4.20;100.00
20622;BME280;10470;42.670;23.354;2023-01-25T11:41:09;95717.50;;;4.08;100.00
20622;BME280;10470;42.670;23.354;2023-01-25T11:44:09;95712.50;;;4.10;100.00
20622;BME280;10470;42.670;23.354;2023-01-25T11:47:14;95699.41;;;4.30;100.00
20622;BME280;10470;42.670;23.354;2023-01-25T11:59:58;95687.47;;;4.16;100.00
20622;BME280;10470;42.670;23.354;2023-01-25T12:06:01;95680.91;;;4.14;100.00
20622;BME280;10470;42.670;23.354;2023-01-25T12:09:09;95675.53;;;4.35;100.00
20622;BME280;10470;42.670;23.354;2023-01-25T12:12:28;95666.69;;;4.31;100.00
20622;BME280;10470;42.670;23.354;2023-01-25T12:30:40;95663.13;;;3.91;100.00
20622;BME280;10470;42.670;23.354;2023-01-25T12:39:18;95645.03;;;3.85;100.00
20622;BME280;10470;42.670;23.354;2023-01-25T12:42:12;95649.31;;;4.14;100.00
20622;BME280;10470;42.670;23.354;2023-01-25T12:45:08;95637.75;;;4.10;100.00
20622;BME280;10470;42.670;23.354;2023-01-25T12:47:59;95641.19;;;3.86;100.00
20622;BME280;10470;42.670;23.354;2023-01-25T12:50:51;95650.06;;;3.97;100.00
20622;BME280;10470;42.670;23.354;2023-01-25T12:53:41;95633.13;;;4.11;100.00
20622;BME280;10470;42.670;23.354;2023-01-25T12:56:46;95639.59;;;3.63;100.00
20622;BME280;10470;42.670;23.354;2023-01-25T12:59:35;95641.97;;;3.90;100.00
20622;BME280;10470;42.670;23.354;2023-01-25T13:12:04;95616.50;;;3.66;100.00
20622;BME280;10470;42.670;23.354;2023-01-25T13:14:49;95620.75;;;3.67;100.00
20622;BME280;10470;42.670;23.354;2023-01-25T13:17:35;95615.69;;;3.55;100.00
20622;BME280;10470;42.670;23.354;2023-01-25T13:20:46;95610.31;;;3.51;100.00
20622;BME280;10470;42.670;23.354;2023-01-25T13:23:40;95614.22;;;3.86;100.00
20622;BME280;10470;42.670;23.354;2023-01-25T13:26:45;95609.59;;;3.86;100.00
20622;BME280;10470;42.670;23.354;2023-01-25T13:41:14;95610.34;;;3.58;100.00
20622;BME280;10470;42.670;23.354;2023-01-25T13:44:19;95604.16;;;3.50;100.00
20622;BME280;10470;42.670;23.354;2023-01-25T13:47:03;95621.91;;;3.77;100.00
20622;BME280;10470;42.670;23.354;2023-01-25T13:53:05;95628.78;;;3.60;100.00
20622;BME280;10470;42.670;23.354;2023-01-25T13:56:02;95612.97;;;3.47;100.00
20622;BME280;10470;42.670;23.354;2023-01-25T13:58:47;95626.13;;;3.67;100.00
20622;BME280;10470;42.670;23.354;2023-01-25T14:01:34;95626.91;;;3.64;100.00
20622;BME280;10470;42.670;23.354;2023-01-25T14:04:20;95615.75;;;3.72;100.00
20622;BME280;10470;42.670;23.354;2023-01-25T14:07:05;95616.44;;;3.44;100.00
20622;BME280;10470;42.670;23.354;2023-01-25T14:09:55;95618.75;;;3.46;100.00
20622;BME280;10470;42.670;23.354;2023-01-25T14:12:39;95623.38;;;3.53;100.00
20622;BME280;10470;42.670;23.354;2023-01-25T14:15:29;95620.69;;;3.45;100.00
20622;BME280;10470;42.670;23.354;2023-01-25T14:18:17;95623.34;;;3.35;100.00
20622;BME280;10470;42.670;23.354;2023-01-25T14:21:18;95617.59;;;3.47;100.00
20622;BME280;10470;42.670;23.354;2023-01-25T14:24:10;95618.72;;;3.39;100.00
20622;BME280;10470;42.670;23.354;2023-01-25T14:26:55;95611.38;;;3.28;100.00
20622;BME280;10470;42.670;23.354;2023-01-25T14:29:46;95608.72;;;3.36;100.00
20622;BME280;10470;42.670;23.354;2023-01-25T14:32:32;95604.16;;;3.58;100.00
20622;BME280;10470;42.670;23.354;2023-01-25T14:35:32;95594.88;;;3.41;100.00
20622;BME280;10470;42.670;23.354;2023-01-25T14:41:17;95599.06;;;3.27;100.00
20622;BME280;10470;42.670;23.354;2023-01-25T14:44:11;95599.88;;;3.42;100.00
20622;BME280;10470;42.670;23.354;2023-01-25T14:46:48;95599.78;;;3.14;100.00
20622;BME280;10470;42.670;23.354;2023-01-25T14:49:33;95590.16;;;3.09;100.00
20622;BME280;10470;42.670;23.354;2023-01-25T14:52:21;95593.22;;;3.11;100.00
20622;BME280;10470;42.670;23.354;2023-01-25T14:55:12;95593.97;;;3.08;100.00
20622;BME280;10470;42.670;23.354;2023-01-25T14:57:59;95593.16;;;2.93;100.00
20622;BME280;10470;42.670;23.354;2023-01-25T15:00:57;95603.63;;;3.09;100.00
20622;BME280;10470;42.670;23.354;2023-01-25T15:03:43;95602.81;;;3.01;100.00
20622;BME280;10470;42.670;23.354;2023-01-25T15:06:29;95604.00;;;3.11;100.00
20622;BME280;10470;42.670;23.354;2023-01-25T15:09:58;95613.94;;;2.96;100.00
20622;BME280;10470;42.670;23.354;2023-01-25T15:12:30;95610.75;;;2.76;100.00
20622;BME280;10470;42.670;23.354;2023-01-25T15:15:18;95624.69;;;2.93;100.00
20622;BME280;10470;42.670;23.354;2023-01-25T15:18:05;95617.66;;;2.74;100.00
20622;BME280;10470;42.670;23.354;2023-01-25T15:20:50;95628.47;;;2.81;100.00
20622;BME280;10470;42.670;23.354;2023-01-25T15:23:36;95633.81;;;2.77;100.00
20622;BME280;10470;42.670;23.354;2023-01-25T15:26:24;95633.75;;;2.67;100.00
20622;BME280;10470;42.670;23.354;2023-01-25T15:29:15;95628.59;;;2.44;100.00
20622;BME280;10470;42.670;23.354;2023-01-25T15:32:01;95635.16;;;2.46;100.00
20622;BME280;10470;42.670;23.354;2023-01-25T15:34:46;95648.00;;;2.71;100.00
20622;BME280;10470;42.670;23.354;2023-01-25T15:37:32;95635.25;;;2.57;100.00
20622;BME280;10470;42.670;23.354;2023-01-25T15:40:17;95634.50;;;2.60;100.00
20622;BME280;10470;42.670;23.354;2023-01-25T15:43:03;95637.53;;;2.58;100.00
20622;BME280;10470;42.670;23.354;2023-01-25T15:45:49;95639.69;;;2.35;100.00
20622;BME280;10470;42.670;23.354;2023-01-25T15:48:37;95643.63;;;2.48;100.00
20622;BME280;10470;42.670;23.354;2023-01-25T15:51:13;95636.66;;;2.44;100.00
20622;BME280;10470;42.670;23.354;2023-01-25T15:53:59;95627.88;;;2.47;100.00
20622;BME280;10470;42.670;23.354;2023-01-25T15:56:50;95631.69;;;2.46;100.00
20622;BME280;10470;42.670;23.354;2023-01-25T15:59:36;95625.06;;;2.36;100.00
20622;BME280;10470;42.670;23.354;2023-01-25T16:02:21;95620.44;;;2.33;100.00
20622;BME280;10470;42.670;23.354;2023-01-25T16:05:07;95627.66;;;2.18;100.00
20622;BME280;10470;42.670;23.354;2023-01-25T16:07:52;95627.31;;;2.27;100.00
20622;BME280;10470;42.670;23.354;2023-01-25T16:10:38;95618.75;;;2.10;100.00
20622;BME280;10470;42.670;23.354;2023-01-25T16:13:23;95632.44;;;2.43;100.00
20622;BME280;10470;42.670;23.354;2023-01-25T16:16:17;95617.84;;;2.44;100.00
20622;BME280;10470;42.670;23.354;2023-01-25T16:19:03;95634.44;;;2.53;100.00
20622;BME280;10470;42.670;23.354;2023-01-25T16:21:49;95621.81;;;2.12;100.00
20622;BME280;10470;42.670;23.354;2023-01-25T16:24:35;95620.03;;;2.27;100.00
20622;BME280;10470;42.670;23.354;2023-01-25T16:27:21;95623.81;;;2.19;100.00
20622;BME280;10470;42.670;23.354;2023-01-25T16:30:19;95624.13;;;2.10;100.00
20622;BME280;10470;42.670;23.354;2023-01-25T16:33:04;95612.63;;;2.13;100.00